sensor_id;sensor_type;location;lat;lon;timestamp;temperature;humidity
9057;DHT22;4563;54.756;9.400;2024-03-02T00:00:19;9.00;84.30
9057;DHT22;4563;54.756;9.400;2024-03-02T00:02:47;9.00;84.30
9057;DHT22;4563;54.756;9.400;2024-03-02T00:05:17;9.00;84.40
9057;DHT22;4563;54.756;9.400;2024-03-02T00:07:45;9.00;84.40
9057;DHT22;4563;54.756;9.400;2024-03-02T00:10:16;9.00;84.40
9057;DHT22;4563;54.756;9.400;2024-03-02T00:12:47;9.00;85.10
9057;DHT22;4563;54.756;9.400;2024-03-02T00:15:32;9.00;84.30
9057;DHT22;4563;54.756;9.400;2024-03-02T00:18:06;9.00;84.40
9057;DHT22;4563;54.756;9.400;2024-03-02T00:20:35;9.00;84.40
9057;DHT22;4563;54.756;9.400;2024-03-02T00:23:03;9.00;84.40
9057;DHT22;4563;54.756;9.400;2024-03-02T00:25:39;9.00;84.40
9057;DHT22;4563;54.756;9.400;2024-03-02T00:28:13;9.00;84.50
9057;DHT22;4563;54.756;9.400;2024-03-02T00:30:52;9.00;84.50
9057;DHT22;4563;54.756;9.400;2024-03-02T00:33:21;9.10;84.70
9057;DHT22;4563;54.756;9.400;2024-03-02T00:35:50;9.10;84.70
9057;DHT22;4563;54.756;9.400;2024-03-02T00:38:17;9.10;84.70
9057;DHT22;4563;54.756;9.400;2024-03-02T00:40:45;9.10;84.70
9057;DHT22;4563;54.756;9.400;2024-03-02T00:43:37;9.10;84.80
9057;DHT22;4563;54.756;9.400;2024-03-02T00:46:05;9.10;84.80
9057;DHT22;4563;54.756;9.400;2024-03-02T00:48:33;9.10;84.80
9057;DHT22;4563;54.756;9.400;2024-03-02T00:51:05;9.10;84.80
9057;DHT22;4563;54.756;9.400;2024-03-02T00:53:32;9.10;84.80
9057;DHT22;4563;54.756;9.400;2024-03-02T00:55:59;9.20;84.90
9057;DHT22;4563;54.756;9.400;2024-03-02T00:58:27;9.20;84.90
9057;DHT22;4563;54.756;9.400;2024-03-02T01:00:54;9.20;84.90
9057;DHT22;4563;54.756;9.400;2024-03-02T01:03:21;9.20;85.00
9057;DHT22;4563;54.756;9.400;2024-03-02T01:05:47;9.10;84.80
9057;DHT22;4563;54.756;9.400;2024-03-02T01:08:15;9.20;85.00
9057;DHT22;4563;54.756;9.400;2024-03-02T01:10:42;9.20;85.00
9057;DHT22;4563;54.756;9.400;2024-03-02T01:13:09;9.20;85.00
9057;DHT22;4563;54.756;9.400;2024-03-02T01:15:36;9.20;85.00
9057;DHT22;4563;54.756;9.400;2024-03-02T01:18:03;9.20;85.00
9057;DHT22;4563;54.756;9.400;2024-03-02T01:20:30;9.20;85.00
9057;DHT22;4563;54.756;9.400;2024-03-02T01:22:57;9.20;85.00
9057;DHT22;4563;54.756;9.400;2024-03-02T01:25:25;9.20;85.00
9057;DHT22;4563;54.756;9.400;2024-03-02T01:27:52;9.20;85.10
9057;DHT22;4563;54.756;9.400;2024-03-02T01:30:19;9.20;85.00
9057;DHT22;4563;54.756;9.400;2024-03-02T01:32:46;9.20;85.10
9057;DHT22;4563;54.756;9.400;2024-03-02T01:35:14;9.20;85.10
9057;DHT22;4563;54.756;9.400;2024-03-02T01:37:41;9.30;85.20
9057;DHT22;4563;54.756;9.400;2024-03-02T01:40:09;9.30;85.20
9057;DHT22;4563;54.756;9.400;2024-03-02T01:42:38;9.20;85.20
9057;DHT22;4563;54.756;9.400;2024-03-02T01:45:06;9.30;85.30
9057;DHT22;4563;54.756;9.400;2024-03-02T01:47:33;9.30;85.30
9057;DHT22;4563;54.756;9.400;2024-03-02T01:50:01;9.30;85.30
9057;DHT22;4563;54.756;9.400;2024-03-02T01:52:28;9.30;85.30
9057;DHT22;4563;54.756;9.400;2024-03-02T01:54:55;9.30;85.30
9057;DHT22;4563;54.756;9.400;2024-03-02T01:57:22;9.30;85.40
9057;DHT22;4563;54.756;9.400;2024-03-02T01:59:50;9.30;85.40
9057;DHT22;4563;54.756;9.400;2024-03-02T02:02:17;9.30;85.40
9057;DHT22;4563;54.756;9.400;2024-03-02T02:04:44;9.30;85.40
9057;DHT22;4563;54.756;9.400;2024-03-02T02:07:11;9.30;85.40
9057;DHT22;4563;54.756;9.400;2024-03-02T02:09:39;9.30;85.50
9057;DHT22;4563;54.756;9.400;2024-03-02T02:12:07;9.30;85.40
9057;DHT22;4563;54.756;9.400;2024-03-02T02:14:33;9.40;85.50
9057;DHT22;4563;54.756;9.400;2024-03-02T02:17:02;9.40;85.50
9057;DHT22;4563;54.756;9.400;2024-03-02T02:19:29;9.40;85.50
9057;DHT22;4563;54.756;9.400;2024-03-02T02:21:57;9.40;85.60
9057;DHT22;4563;54.756;9.400;2024-03-02T02:24:23;9.40;85.50
9057;DHT22;4563;54.756;9.400;2024-03-02T02:26:50;9.30;85.50
9057;DHT22;4563;54.756;9.400;2024-03-02T02:29:17;9.40;85.60
9057;DHT22;4563;54.756;9.400;2024-03-02T02:31:44;9.40;85.60
9057;DHT22;4563;54.756;9.400;2024-03-02T02:34:11;9.40;85.60
9057;DHT22;4563;54.756;9.400;2024-03-02T02:36:38;9.40;85.60
9057;DHT22;4563;54.756;9.400;2024-03-02T02:39:09;9.40;85.60
9057;DHT22;4563;54.756;9.400;2024-03-02T02:41:37;9.40;85.70
9057;DHT22;4563;54.756;9.400;2024-03-02T02:44:04;9.40;85.60
9057;DHT22;4563;54.756;9.400;2024-03-02T02:46:31;9.40;85.70
9057;DHT22;4563;54.756;9.400;2024-03-02T02:48:58;9.40;85.70
9057;DHT22;4563;54.756;9.400;2024-03-02T02:51:24;9.40;85.70
9057;DHT22;4563;54.756;9.400;2024-03-02T02:53:51;9.40;85.70
9057;DHT22;4563;54.756;9.400;2024-03-02T02:56:20;9.40;85.70
9057;DHT22;4563;54.756;9.400;2024-03-02T02:58:46;9.40;85.70
9057;DHT22;4563;54.756;9.400;2024-03-02T03:01:13;9.40;85.80
9057;DHT22;4563;54.756;9.400;2024-03-02T03:03:42;9.40;85.80
9057;DHT22;4563;54.756;9.400;2024-03-02T03:06:09;9.40;85.80
9057;DHT22;4563;54.756;9.400;2024-03-02T03:08:36;9.50;85.90
9057;DHT22;4563;54.756;9.400;2024-03-02T03:11:03;9.50;85.90
9057;DHT22;4563;54.756;9.400;2024-03-02T03:13:31;9.40;85.80
9057;DHT22;4563;54.756;9.400;2024-03-02T03:15:58;9.50;85.90
9057;DHT22;4563;54.756;9.400;2024-03-02T03:18:25;9.50;85.90
9057;DHT22;4563;54.756;9.400;2024-03-02T03:20:52;9.50;85.90
9057;DHT22;4563;54.756;9.400;2024-03-02T03:23:19;9.50;85.90
9057;DHT22;4563;54.756;9.400;2024-03-02T03:25:46;9.50;85.90
9057;DHT22;4563;54.756;9.400;2024-03-02T03:28:13;9.50;85.90
9057;DHT22;4563;54.756;9.400;2024-03-02T03:30:41;9.50;85.90
9057;DHT22;4563;54.756;9.400;2024-03-02T03:33:08;9.50;85.90
9057;DHT22;4563;54.756;9.400;2024-03-02T03:35:36;9.60;86.10
9057;DHT22;4563;54.756;9.400;2024-03-02T03:38:04;9.60;86.10
9057;DHT22;4563;54.756;9.400;2024-03-02T03:40:31;9.60;86.10
9057;DHT22;4563;54.756;9.400;2024-03-02T03:42:57;9.60;86.10
9057;DHT22;4563;54.756;9.400;2024-03-02T03:45:25;9.60;86.10
9057;DHT22;4563;54.756;9.400;2024-03-02T03:47:53;9.60;86.10
9057;DHT22;4563;54.756;9.400;2024-03-02T03:50:20;9.60;86.10
9057;DHT22;4563;54.756;9.400;2024-03-02T03:52:47;9.60;86.20
9057;DHT22;4563;54.756;9.400;2024-03-02T03:55:14;9.60;86.10
9057;DHT22;4563;54.756;9.400;2024-03-02T03:57:41;9.60;86.10
9057;DHT22;4563;54.756;9.400;2024-03-02T04:00:08;9.60;86.20
9057;DHT22;4563;54.756;9.400;2024-03-02T04:02:36;9.70;86.30
9057;DHT22;4563;54.756;9.400;2024-03-02T04:05:05;9.70;86.30
9057;DHT22;4563;54.756;9.400;2024-03-02T04:07:35;9.70;86.30
9057;DHT22;4563;54.756;9.400;2024-03-02T04:10:07;9.70;86.30
9057;DHT22;4563;54.756;9.400;2024-03-02T04:12:35;9.70;86.30
9057;DHT22;4563;54.756;9.400;2024-03-02T04:15:02;9.70;86.30
9057;DHT22;4563;54.756;9.400;2024-03-02T04:17:31;9.70;86.30
9057;DHT22;4563;54.756;9.400;2024-03-02T04:19:57;9.70;86.30
9057;DHT22;4563;54.756;9.400;2024-03-02T04:22:26;9.70;86.30
9057;DHT22;4563;54.756;9.400;2024-03-02T04:24:53;9.70;86.30
9057;DHT22;4563;54.756;9.400;2024-03-02T04:27:20;9.70;86.30
9057;DHT22;4563;54.756;9.400;2024-03-02T04:29:47;9.70;86.30
9057;DHT22;4563;54.756;9.400;2024-03-02T04:32:13;9.70;86.30
9057;DHT22;4563;54.756;9.400;2024-03-02T04:34:40;9.70;86.40
9057;DHT22;4563;54.756;9.400;2024-03-02T04:37:07;9.80;86.60
9057;DHT22;4563;54.756;9.400;2024-03-02T04:39:36;9.80;86.60
9057;DHT22;4563;54.756;9.400;2024-03-02T04:42:03;9.80;86.60
9057;DHT22;4563;54.756;9.400;2024-03-02T04:44:29;9.80;86.60
9057;DHT22;4563;54.756;9.400;2024-03-02T04:46:56;9.80;86.60
9057;DHT22;4563;54.756;9.400;2024-03-02T04:49:23;9.80;86.50
9057;DHT22;4563;54.756;9.400;2024-03-02T04:51:50;9.80;86.50
9057;DHT22;4563;54.756;9.400;2024-03-02T04:54:17;9.80;86.50
9057;DHT22;4563;54.756;9.400;2024-03-02T04:56:45;9.80;86.50
9057;DHT22;4563;54.756;9.400;2024-03-02T04:59:15;9.80;86.40
9057;DHT22;4563;54.756;9.400;2024-03-02T05:01:42;9.80;86.50
9057;DHT22;4563;54.756;9.400;2024-03-02T05:04:09;9.80;86.40
9057;DHT22;4563;54.756;9.400;2024-03-02T05:06:39;9.80;86.40
9057;DHT22;4563;54.756;9.400;2024-03-02T05:09:06;9.80;86.40
9057;DHT22;4563;54.756;9.400;2024-03-02T05:11:33;9.80;86.40
9057;DHT22;4563;54.756;9.400;2024-03-02T05:14:36;9.80;86.40
9057;DHT22;4563;54.756;9.400;2024-03-02T05:17:03;9.80;86.40
9057;DHT22;4563;54.756;9.400;2024-03-02T05:19:30;9.80;86.40
9057;DHT22;4563;54.756;9.400;2024-03-02T05:21:57;9.80;86.40
9057;DHT22;4563;54.756;9.400;2024-03-02T05:24:23;9.80;86.40
9057;DHT22;4563;54.756;9.400;2024-03-02T05:26:52;9.80;86.30
9057;DHT22;4563;54.756;9.400;2024-03-02T05:29:22;9.80;86.40
9057;DHT22;4563;54.756;9.400;2024-03-02T05:31:50;9.80;86.40
9057;DHT22;4563;54.756;9.400;2024-03-02T05:34:17;9.80;86.40
9057;DHT22;4563;54.756;9.400;2024-03-02T05:36:44;9.80;86.40
9057;DHT22;4563;54.756;9.400;2024-03-02T05:39:10;9.80;87.10
9057;DHT22;4563;54.756;9.400;2024-03-02T05:41:37;9.80;86.40
9057;DHT22;4563;54.756;9.400;2024-03-02T05:44:04;9.80;86.30
9057;DHT22;4563;54.756;9.400;2024-03-02T05:46:31;9.80;86.40
9057;DHT22;4563;54.756;9.400;2024-03-02T05:48:59;9.80;86.40
9057;DHT22;4563;54.756;9.400;2024-03-02T05:51:27;9.80;86.50
9057;DHT22;4563;54.756;9.400;2024-03-02T05:53:54;9.80;86.50
9057;DHT22;4563;54.756;9.400;2024-03-02T05:56:20;9.80;86.40
9057;DHT22;4563;54.756;9.400;2024-03-02T05:58:47;9.80;86.50
9057;DHT22;4563;54.756;9.400;2024-03-02T06:01:26;9.80;86.50
9057;DHT22;4563;54.756;9.400;2024-03-02T06:03:55;9.80;86.50
9057;DHT22;4563;54.756;9.400;2024-03-02T06:06:23;9.80;86.50
9057;DHT22;4563;54.756;9.400;2024-03-02T06:08:49;9.80;86.50
9057;DHT22;4563;54.756;9.400;2024-03-02T06:11:16;9.80;86.50
9057;DHT22;4563;54.756;9.400;2024-03-02T06:13:43;9.80;86.50
9057;DHT22;4563;54.756;9.400;2024-03-02T06:16:10;9.80;86.50
9057;DHT22;4563;54.756;9.400;2024-03-02T06:18:37;9.80;86.50
9057;DHT22;4563;54.756;9.400;2024-03-02T06:21:04;9.80;86.50
9057;DHT22;4563;54.756;9.400;2024-03-02T06:23:33;9.80;86.50
9057;DHT22;4563;54.756;9.400;2024-03-02T06:26:00;9.80;86.50
9057;DHT22;4563;54.756;9.400;2024-03-02T06:28:27;9.80;86.40
9057;DHT22;4563;54.756;9.400;2024-03-02T06:30:54;9.80;86.40
9057;DHT22;4563;54.756;9.400;2024-03-02T06:33:21;9.80;86.40
9057;DHT22;4563;54.756;9.400;2024-03-02T06:35:48;9.80;86.30
9057;DHT22;4563;54.756;9.400;2024-03-02T06:38:15;9.80;86.30
9057;DHT22;4563;54.756;9.400;2024-03-02T06:40:43;9.80;86.60
9057;DHT22;4563;54.756;9.400;2024-03-02T06:43:10;9.80;86.30
9057;DHT22;4563;54.756;9.400;2024-03-02T06:45:37;9.70;86.20
9057;DHT22;4563;54.756;9.400;2024-03-02T06:48:04;9.70;86.20
9057;DHT22;4563;54.756;9.400;2024-03-02T06:50:31;9.70;86.30
9057;DHT22;4563;54.756;9.400;2024-03-02T06:52:58;9.70;86.30
9057;DHT22;4563;54.756;9.400;2024-03-02T06:55:24;9.70;86.30
9057;DHT22;4563;54.756;9.400;2024-03-02T06:57:53;9.70;86.30
9057;DHT22;4563;54.756;9.400;2024-03-02T07:00:19;9.70;86.30
9057;DHT22;4563;54.756;9.400;2024-03-02T07:02:46;9.70;86.30
9057;DHT22;4563;54.756;9.400;2024-03-02T07:05:13;9.60;86.30
9057;DHT22;4563;54.756;9.400;2024-03-02T07:07:40;9.60;86.30
9057;DHT22;4563;54.756;9.400;2024-03-02T07:10:07;9.60;86.30
9057;DHT22;4563;54.756;9.400;2024-03-02T07:12:34;9.60;86.30
9057;DHT22;4563;54.756;9.400;2024-03-02T07:15:03;9.60;86.30
9057;DHT22;4563;54.756;9.400;2024-03-02T07:17:55;9.60;86.30
9057;DHT22;4563;54.756;9.400;2024-03-02T07:20:22;9.60;86.30
9057;DHT22;4563;54.756;9.400;2024-03-02T07:22:49;9.60;86.40
9057;DHT22;4563;54.756;9.400;2024-03-02T07:25:15;9.60;86.40
9057;DHT22;4563;54.756;9.400;2024-03-02T07:27:42;9.60;86.50
9057;DHT22;4563;54.756;9.400;2024-03-02T07:30:13;9.60;86.50
9057;DHT22;4563;54.756;9.400;2024-03-02T07:32:41;9.60;86.50
9057;DHT22;4563;54.756;9.400;2024-03-02T07:35:11;9.60;86.50
9057;DHT22;4563;54.756;9.400;2024-03-02T07:37:38;9.60;86.50
9057;DHT22;4563;54.756;9.400;2024-03-02T07:40:06;9.60;86.50
9057;DHT22;4563;54.756;9.400;2024-03-02T07:42:37;9.60;86.60
9057;DHT22;4563;54.756;9.400;2024-03-02T07:45:04;9.60;86.60
9057;DHT22;4563;54.756;9.400;2024-03-02T07:47:33;9.70;86.70
9057;DHT22;4563;54.756;9.400;2024-03-02T07:50:00;9.70;86.70
9057;DHT22;4563;54.756;9.400;2024-03-02T07:52:26;9.70;86.70
9057;DHT22;4563;54.756;9.400;2024-03-02T07:54:53;9.70;86.70
9057;DHT22;4563;54.756;9.400;2024-03-02T07:57:20;9.70;86.70
9057;DHT22;4563;54.756;9.400;2024-03-02T07:59:47;9.70;86.60
9057;DHT22;4563;54.756;9.400;2024-03-02T08:02:14;9.70;86.70
9057;DHT22;4563;54.756;9.400;2024-03-02T08:04:42;9.70;86.70
9057;DHT22;4563;54.756;9.400;2024-03-02T08:07:11;9.70;86.70
9057;DHT22;4563;54.756;9.400;2024-03-02T08:09:38;9.70;86.70
9057;DHT22;4563;54.756;9.400;2024-03-02T08:12:05;9.80;86.80
9057;DHT22;4563;54.756;9.400;2024-03-02T08:14:32;9.80;86.80
9057;DHT22;4563;54.756;9.400;2024-03-02T08:16:58;9.80;86.80
9057;DHT22;4563;54.756;9.400;2024-03-02T08:19:27;9.80;86.80
9057;DHT22;4563;54.756;9.400;2024-03-02T08:21:55;9.80;86.70
9057;DHT22;4563;54.756;9.400;2024-03-02T08:24:22;9.80;86.80
9057;DHT22;4563;54.756;9.400;2024-03-02T08:26:48;9.80;86.80
9057;DHT22;4563;54.756;9.400;2024-03-02T08:29:15;9.80;86.80
9057;DHT22;4563;54.756;9.400;2024-03-02T08:31:42;9.80;86.80
9057;DHT22;4563;54.756;9.400;2024-03-02T08:34:09;9.80;86.80
9057;DHT22;4563;54.756;9.400;2024-03-02T08:36:36;9.90;87.00
9057;DHT22;4563;54.756;9.400;2024-03-02T08:39:04;9.90;87.00
9057;DHT22;4563;54.756;9.400;2024-03-02T08:41:40;9.90;87.00
9057;DHT22;4563;54.756;9.400;2024-03-02T08:44:07;9.90;87.00
9057;DHT22;4563;54.756;9.400;2024-03-02T08:46:34;10.00;86.00
9057;DHT22;4563;54.756;9.400;2024-03-02T08:49:01;10.00;86.10
9057;DHT22;4563;54.756;9.400;2024-03-02T08:51:28;10.00;86.10
9057;DHT22;4563;54.756;9.400;2024-03-02T08:53:55;10.00;86.10
9057;DHT22;4563;54.756;9.400;2024-03-02T08:56:25;10.10;86.20
9057;DHT22;4563;54.756;9.400;2024-03-02T08:58:51;10.10;86.30
9057;DHT22;4563;54.756;9.400;2024-03-02T09:01:19;10.20;86.40
9057;DHT22;4563;54.756;9.400;2024-03-02T09:03:46;10.20;86.40
9057;DHT22;4563;54.756;9.400;2024-03-02T09:06:13;10.30;86.50
9057;DHT22;4563;54.756;9.400;2024-03-02T09:08:42;10.30;86.60
9057;DHT22;4563;54.756;9.400;2024-03-02T09:11:10;10.40;86.70
9057;DHT22;4563;54.756;9.400;2024-03-02T09:13:38;10.40;86.70
9057;DHT22;4563;54.756;9.400;2024-03-02T09:16:05;10.40;87.40
9057;DHT22;4563;54.756;9.400;2024-03-02T09:18:36;10.50;86.80
9057;DHT22;4563;54.756;9.400;2024-03-02T09:21:03;10.50;86.80
9057;DHT22;4563;54.756;9.400;2024-03-02T09:23:30;10.50;86.80
9057;DHT22;4563;54.756;9.400;2024-03-02T09:25:57;10.60;86.90
9057;DHT22;4563;54.756;9.400;2024-03-02T09:28:24;10.60;86.90
9057;DHT22;4563;54.756;9.400;2024-03-02T09:30:52;10.70;87.00
9057;DHT22;4563;54.756;9.400;2024-03-02T09:33:18;10.70;87.00
9057;DHT22;4563;54.756;9.400;2024-03-02T09:35:45;10.80;87.00
9057;DHT22;4563;54.756;9.400;2024-03-02T09:38:12;10.80;87.00
9057;DHT22;4563;54.756;9.400;2024-03-02T09:40:41;10.90;87.20
9057;DHT22;4563;54.756;9.400;2024-03-02T09:43:09;10.90;87.10
9057;DHT22;4563;54.756;9.400;2024-03-02T09:45:36;11.00;87.20
9057;DHT22;4563;54.756;9.400;2024-03-02T09:48:05;11.00;87.20
9057;DHT22;4563;54.756;9.400;2024-03-02T09:50:32;11.00;87.20
9057;DHT22;4563;54.756;9.400;2024-03-02T09:52:59;11.10;87.20
9057;DHT22;4563;54.756;9.400;2024-03-02T09:55:26;11.20;87.40
9057;DHT22;4563;54.756;9.400;2024-03-02T09:57:53;11.20;87.40
9057;DHT22;4563;54.756;9.400;2024-03-02T10:00:20;11.20;87.30
9057;DHT22;4563;54.756;9.400;2024-03-02T10:02:47;11.30;87.40
9057;DHT22;4563;54.756;9.400;2024-03-02T10:05:23;11.30;87.40
9057;DHT22;4563;54.756;9.400;2024-03-02T10:07:59;11.40;87.60
9057;DHT22;4563;54.756;9.400;2024-03-02T10:10:35;11.40;88.30
9057;DHT22;4563;54.756;9.400;2024-03-02T10:13:05;11.50;87.60
9057;DHT22;4563;54.756;9.400;2024-03-02T10:15:33;11.50;87.60
9057;DHT22;4563;54.756;9.400;2024-03-02T10:17:59;11.60;87.70
9057;DHT22;4563;54.756;9.400;2024-03-02T10:20:28;11.60;87.70
9057;DHT22;4563;54.756;9.400;2024-03-02T10:22:55;11.70;87.80
9057;DHT22;4563;54.756;9.400;2024-03-02T10:25:29;11.80;87.80
9057;DHT22;4563;54.756;9.400;2024-03-02T10:27:57;11.80;87.80
9057;DHT22;4563;54.756;9.400;2024-03-02T10:30:25;11.80;87.70
9057;DHT22;4563;54.756;9.400;2024-03-02T10:32:53;11.90;87.80
9057;DHT22;4563;54.756;9.400;2024-03-02T10:35:20;11.90;87.80
9057;DHT22;4563;54.756;9.400;2024-03-02T10:37:49;12.00;87.70
9057;DHT22;4563;54.756;9.400;2024-03-02T10:40:16;12.00;87.60
9057;DHT22;4563;54.756;9.400;2024-03-02T10:42:44;12.10;87.60
9057;DHT22;4563;54.756;9.400;2024-03-02T10:45:12;12.20;87.60
9057;DHT22;4563;54.756;9.400;2024-03-02T10:47:41;12.20;87.40
9057;DHT22;4563;54.756;9.400;2024-03-02T10:50:09;12.30;87.40
9057;DHT22;4563;54.756;9.400;2024-03-02T10:52:36;12.30;87.30
9057;DHT22;4563;54.756;9.400;2024-03-02T10:55:05;12.30;87.20
9057;DHT22;4563;54.756;9.400;2024-03-02T10:57:40;12.40;87.10
9057;DHT22;4563;54.756;9.400;2024-03-02T11:00:09;12.50;87.00
9057;DHT22;4563;54.756;9.400;2024-03-02T11:02:46;12.50;86.90
9057;DHT22;4563;54.756;9.400;2024-03-02T11:05:23;12.50;86.80
9057;DHT22;4563;54.756;9.400;2024-03-02T11:07:52;12.60;86.90
9057;DHT22;4563;54.756;9.400;2024-03-02T11:10:21;12.70;86.70
9057;DHT22;4563;54.756;9.400;2024-03-02T11:12:55;12.70;86.60
9057;DHT22;4563;54.756;9.400;2024-03-02T11:15:25;12.70;86.50
9057;DHT22;4563;54.756;9.400;2024-03-02T11:17:52;12.80;86.40
9057;DHT22;4563;54.756;9.400;2024-03-02T11:20:19;12.80;86.30
9057;DHT22;4563;54.756;9.400;2024-03-02T11:22:47;12.90;86.30
9057;DHT22;4563;54.756;9.400;2024-03-02T11:25:26;12.90;86.10
9057;DHT22;4563;54.756;9.400;2024-03-02T11:28:00;13.00;86.10
9057;DHT22;4563;54.756;9.400;2024-03-02T11:30:49;13.00;86.00
9057;DHT22;4563;54.756;9.400;2024-03-02T11:33:26;13.00;86.00
9057;DHT22;4563;54.756;9.400;2024-03-02T11:35:56;13.10;85.80
9057;DHT22;4563;54.756;9.400;2024-03-02T11:38:22;13.10;85.70
9057;DHT22;4563;54.756;9.400;2024-03-02T11:40:51;13.10;85.60
9057;DHT22;4563;54.756;9.400;2024-03-02T11:43:19;13.20;85.50
9057;DHT22;4563;54.756;9.400;2024-03-02T11:45:46;13.20;85.40
9057;DHT22;4563;54.756;9.400;2024-03-02T11:48:14;13.30;85.40
9057;DHT22;4563;54.756;9.400;2024-03-02T11:50:42;13.30;85.30
9057;DHT22;4563;54.756;9.400;2024-03-02T11:53:12;13.30;85.20
9057;DHT22;4563;54.756;9.400;2024-03-02T11:55:40;13.30;85.00
9057;DHT22;4563;54.756;9.400;2024-03-02T11:58:08;13.40;85.00
9057;DHT22;4563;54.756;9.400;2024-03-02T12:00:35;13.40;84.90
9057;DHT22;4563;54.756;9.400;2024-03-02T12:03:04;13.50;84.90
9057;DHT22;4563;54.756;9.400;2024-03-02T12:05:32;13.50;84.70
9057;DHT22;4563;54.756;9.400;2024-03-02T12:08:02;13.50;84.60
9057;DHT22;4563;54.756;9.400;2024-03-02T12:10:30;13.60;84.70
9057;DHT22;4563;54.756;9.400;2024-03-02T12:12:57;13.60;84.70
9057;DHT22;4563;54.756;9.400;2024-03-02T12:15:27;13.60;84.70
9057;DHT22;4563;54.756;9.400;2024-03-02T12:17:54;13.70;84.80
9057;DHT22;4563;54.756;9.400;2024-03-02T12:20:21;13.70;84.60
9057;DHT22;4563;54.756;9.400;2024-03-02T12:22:50;13.80;84.60
9057;DHT22;4563;54.756;9.400;2024-03-02T12:25:17;13.80;84.60
9057;DHT22;4563;54.756;9.400;2024-03-02T12:27:45;13.90;84.60
9057;DHT22;4563;54.756;9.400;2024-03-02T12:30:12;13.90;84.50
9057;DHT22;4563;54.756;9.400;2024-03-02T12:32:41;14.00;84.50
9057;DHT22;4563;54.756;9.400;2024-03-02T12:35:08;14.00;84.40
9057;DHT22;4563;54.756;9.400;2024-03-02T12:37:42;14.10;85.20
9057;DHT22;4563;54.756;9.400;2024-03-02T12:40:10;14.10;84.50
9057;DHT22;4563;54.756;9.400;2024-03-02T12:42:37;14.20;84.30
9057;DHT22;4563;54.756;9.400;2024-03-02T12:45:05;14.20;84.20
9057;DHT22;4563;54.756;9.400;2024-03-02T12:47:32;14.30;84.20
9057;DHT22;4563;54.756;9.400;2024-03-02T12:50:01;14.30;84.10
9057;DHT22;4563;54.756;9.400;2024-03-02T12:52:28;14.40;84.10
9057;DHT22;4563;54.756;9.400;2024-03-02T12:54:55;14.50;84.00
9057;DHT22;4563;54.756;9.400;2024-03-02T12:57:25;14.50;83.90
9057;DHT22;4563;54.756;9.400;2024-03-02T12:59:57;14.60;84.00
9057;DHT22;4563;54.756;9.400;2024-03-02T13:02:27;14.70;84.10
9057;DHT22;4563;54.756;9.400;2024-03-02T13:04:55;14.70;84.00
9057;DHT22;4563;54.756;9.400;2024-03-02T13:07:23;14.80;84.00
9057;DHT22;4563;54.756;9.400;2024-03-02T13:09:50;14.80;83.90
9057;DHT22;4563;54.756;9.400;2024-03-02T13:12:17;14.90;83.90
9057;DHT22;4563;54.756;9.400;2024-03-02T13:14:48;15.00;84.00
9057;DHT22;4563;54.756;9.400;2024-03-02T13:17:16;15.10;84.10
9057;DHT22;4563;54.756;9.400;2024-03-02T13:19:50;15.20;84.30
9057;DHT22;4563;54.756;9.400;2024-03-02T13:22:18;15.30;84.40
9057;DHT22;4563;54.756;9.400;2024-03-02T13:24:47;15.40;84.50
9057;DHT22;4563;54.756;9.400;2024-03-02T13:27:13;15.50;84.60
9057;DHT22;4563;54.756;9.400;2024-03-02T13:29:41;15.60;84.70
9057;DHT22;4563;54.756;9.400;2024-03-02T13:32:08;15.70;84.80
9057;DHT22;4563;54.756;9.400;2024-03-02T13:34:38;15.90;84.90
9057;DHT22;4563;54.756;9.400;2024-03-02T13:37:05;16.00;85.10
9057;DHT22;4563;54.756;9.400;2024-03-02T13:39:32;16.20;85.10
9057;DHT22;4563;54.756;9.400;2024-03-02T13:42:07;16.30;85.00
9057;DHT22;4563;54.756;9.400;2024-03-02T13:44:34;16.40;85.00
9057;DHT22;4563;54.756;9.400;2024-03-02T13:47:01;16.60;85.00
9057;DHT22;4563;54.756;9.400;2024-03-02T13:49:28;16.70;84.80
9057;DHT22;4563;54.756;9.400;2024-03-02T13:51:59;16.80;84.70
9057;DHT22;4563;54.756;9.400;2024-03-02T13:54:28;16.90;84.60
9057;DHT22;4563;54.756;9.400;2024-03-02T13:56:55;17.10;84.40
9057;DHT22;4563;54.756;9.400;2024-03-02T13:59:25;17.20;84.20
9057;DHT22;4563;54.756;9.400;2024-03-02T14:01:52;17.30;84.10
9057;DHT22;4563;54.756;9.400;2024-03-02T14:04:19;17.40;83.80
9057;DHT22;4563;54.756;9.400;2024-03-02T14:06:46;17.50;83.70
9057;DHT22;4563;54.756;9.400;2024-03-02T14:09:13;17.70;83.60
9057;DHT22;4563;54.756;9.400;2024-03-02T14:11:40;17.70;83.30
9057;DHT22;4563;54.756;9.400;2024-03-02T14:14:07;17.90;83.10
9057;DHT22;4563;54.756;9.400;2024-03-02T14:16:35;17.90;82.60
9057;DHT22;4563;54.756;9.400;2024-03-02T14:19:02;18.00;82.40
9057;DHT22;4563;54.756;9.400;2024-03-02T14:21:30;18.00;82.00
9057;DHT22;4563;54.756;9.400;2024-03-02T14:23:57;18.10;81.80
9057;DHT22;4563;54.756;9.400;2024-03-02T14:26:24;18.20;81.60
9057;DHT22;4563;54.756;9.400;2024-03-02T14:28:50;18.20;81.30
9057;DHT22;4563;54.756;9.400;2024-03-02T14:31:17;18.30;80.90
9057;DHT22;4563;54.756;9.400;2024-03-02T14:33:46;18.30;80.70
9057;DHT22;4563;54.756;9.400;2024-03-02T14:36:13;18.40;80.50
9057;DHT22;4563;54.756;9.400;2024-03-02T14:38:40;18.40;80.20
9057;DHT22;4563;54.756;9.400;2024-03-02T14:41:07;18.40;80.00
9057;DHT22;4563;54.756;9.400;2024-03-02T14:43:34;18.40;79.70
9057;DHT22;4563;54.756;9.400;2024-03-02T14:46:03;18.50;79.60
9057;DHT22;4563;54.756;9.400;2024-03-02T14:48:30;18.50;79.60
9057;DHT22;4563;54.756;9.400;2024-03-02T14:50:58;18.40;79.10
9057;DHT22;4563;54.756;9.400;2024-03-02T14:53:25;18.50;79.00
9057;DHT22;4563;54.756;9.400;2024-03-02T14:55:52;18.50;78.80
9057;DHT22;4563;54.756;9.400;2024-03-02T14:58:19;18.50;78.60
9057;DHT22;4563;54.756;9.400;2024-03-02T15:00:45;18.50;78.50
9057;DHT22;4563;54.756;9.400;2024-03-02T15:03:12;18.40;78.20
9057;DHT22;4563;54.756;9.400;2024-03-02T15:05:41;18.40;78.00
9057;DHT22;4563;54.756;9.400;2024-03-02T15:08:12;18.40;77.90
9057;DHT22;4563;54.756;9.400;2024-03-02T15:10:39;18.40;77.70
9057;DHT22;4563;54.756;9.400;2024-03-02T15:13:06;18.40;77.40
9057;DHT22;4563;54.756;9.400;2024-03-02T15:15:32;18.40;77.20
9057;DHT22;4563;54.756;9.400;2024-03-02T15:17:59;18.40;77.10
9057;DHT22;4563;54.756;9.400;2024-03-02T15:20:26;18.30;76.90
9057;DHT22;4563;54.756;9.400;2024-03-02T15:22:53;18.30;76.80
9057;DHT22;4563;54.756;9.400;2024-03-02T15:25:21;18.30;76.80
9057;DHT22;4563;54.756;9.400;2024-03-02T15:27:48;18.30;76.60
9057;DHT22;4563;54.756;9.400;2024-03-02T15:30:15;18.30;76.40
9057;DHT22;4563;54.756;9.400;2024-03-02T15:32:42;18.20;76.30
9057;DHT22;4563;54.756;9.400;2024-03-02T15:35:08;18.20;76.20
9057;DHT22;4563;54.756;9.400;2024-03-02T15:37:36;18.10;76.00
9057;DHT22;4563;54.756;9.400;2024-03-02T15:40:03;18.10;76.00
9057;DHT22;4563;54.756;9.400;2024-03-02T15:42:34;18.00;75.80
9057;DHT22;4563;54.756;9.400;2024-03-02T15:45:01;18.00;75.80
9057;DHT22;4563;54.756;9.400;2024-03-02T15:47:28;17.90;75.60
9057;DHT22;4563;54.756;9.400;2024-03-02T15:49:55;17.90;75.50
9057;DHT22;4563;54.756;9.400;2024-03-02T15:52:22;17.80;75.30
9057;DHT22;4563;54.756;9.400;2024-03-02T15:54:49;17.80;75.20
9057;DHT22;4563;54.756;9.400;2024-03-02T15:57:16;17.70;75.10
9057;DHT22;4563;54.756;9.400;2024-03-02T15:59:44;17.60;75.00
9057;DHT22;4563;54.756;9.400;2024-03-02T16:02:11;17.60;75.10
9057;DHT22;4563;54.756;9.400;2024-03-02T16:04:39;17.50;75.00
9057;DHT22;4563;54.756;9.400;2024-03-02T16:07:06;17.50;75.10
9057;DHT22;4563;54.756;9.400;2024-03-02T16:09:33;17.40;75.00
9057;DHT22;4563;54.756;9.400;2024-03-02T16:12:00;17.30;74.90
9057;DHT22;4563;54.756;9.400;2024-03-02T16:14:27;17.20;74.80